This is the latest recevied weather packets stored in our database for station/object KC8JWT. If no packets are shown the sender has not sent any weather packets the latest 10 day(s).
| Time | Temp. | Humidity | Pressure | Rain* | Wind** | Luminosity | Snow |
|---|---|---|---|---|---|---|---|
| 1778098449 | 16.67° C | 75% | 1011 hPa | 0 mm | - | 285 W/m² | - |
| 1778098145 | 16.67° C | 76% | 1010.8 hPa | 0 mm | - | 263 W/m² | - |
| 1778097841 | 17.22° C | 74% | 1011 hPa | 0 mm | - | 275 W/m² | - |
| 1778097538 | 16.67° C | 76% | 1011.2 hPa | 0 mm | - | 295 W/m² | - |
| 1778097235 | 16.67° C | 76% | 1011.1 hPa | 0 mm | - | 232 W/m² | - |
| 1778096931 | 16.67° C | 75% | 1011.1 hPa | 0 mm | - | 200 W/m² | - |
| 1778096628 | 16.67° C | 77% | 1010.9 hPa | 0 mm | - | 232 W/m² | - |
| 1778096326 | 17.78° C | 72% | 1010.9 hPa | 0 mm | - | 262 W/m² | - |
| 1778096022 | 17.78° C | 76% | 1010.9 hPa | 0 mm | - | 553 W/m² | - |
| 1778095719 | 17.22° C | 78% | 1011 hPa | 0 mm | - | 456 W/m² | - |
| 1778095416 | 17.22° C | 79% | 1011.1 hPa | 0 mm | - | 489 W/m² | - |
| 1778095113 | 16.67° C | 80% | 1011 hPa | 0 mm | - | 425 W/m² | - |
| 1778094809 | 16.67° C | 80% | 1011.1 hPa | 0 mm | - | 302 W/m² | - |
| 1778094506 | 17.22° C | 78% | 1011.2 hPa | 0 mm | - | 310 W/m² | - |
| 1778094202 | 17.22° C | 80% | 1011 hPa | 0 mm | - | 302 W/m² | - |
| 1778093899 | 17.22° C | 79% | 1011.1 hPa | 0 mm | - | 397 W/m² | - |
| 1778093596 | 16.67° C | 80% | 1011.1 hPa | 0 mm | - | 478 W/m² | - |
| 1778093293 | 16.11° C | 82% | 1011.2 hPa | 0 mm | - | 381 W/m² | - |
| 1778092991 | 16.11° C | 83% | 1011.3 hPa | 0 mm | - | 374 W/m² | - |
| 1778092688 | 16.11° C | 82% | 1011.5 hPa | 0 mm | - | 340 W/m² | - |
| 1778092383 | 16.11° C | 84% | 1011.3 hPa | 0 mm | - | 243 W/m² | - |
| 1778092080 | 16.11° C | 82% | 1011.4 hPa | 0 mm | - | 235 W/m² | - |
| 1778091777 | 16.67° C | 83% | 1011.2 hPa | 0 mm | - | 256 W/m² | - |
| 1778091475 | 16.67° C | 83% | 1011.3 hPa | 0 mm | - | 299 W/m² | - |
| 1778091173 | 16.67° C | 81% | 1011.3 hPa | 0 mm | - | 440 W/m² | - |
* Rain latest hour (hover to see other rain measurements)
** Current wind speed in m/s (hover to see current wind gust speed)